Aeroporto :
LOGIN :

Iscrizione | Disclaimer

   EN    FR    IT 

 










Sommario :    VFR   VFR Marginale   IFR   IFR Intensivo   IFR Molto Intensivo
Visibilità : 
Base nubi : 
>= 8 km
>= 3000ft
5 / 8 km
1000 / 3000 ft
1500m / 5 km
500 / 1000 ft
800 / 1500m
200 / 500 ft
< 800m
< 200 ft
Simboli :   Temporali  Nebbia  Neve Forte  Precipitazioni Forti  Vento > 20 kt
SIGMETs :   Varie  Temporali  Ghiacco  Turbolenza  Onda orograficha  Ceneri Vulcaniche







- Altitudine del aeroporto : 375 ft
- Codice IATA : MST


EHBK - Maastricht Aachen

ULTIMO METAR :
  • 192025Z AUTO 06004KT 040V100 9999 NCD 14/02 Q1027 NOSIG

METARs OBSOLETI :
  • 191955Z AUTO 06005KT 9999 NCD 16/01 Q1027 NOSIG
  • 191925Z AUTO 08005KT 040V140 9999 NCD 18/01 Q1027 NOSIG
  • 191855Z AUTO 08005KT 9999 NCD 18/01 Q1027 NOSIG
  • 191825Z AUTO 08007KT 9999 NCD 19/01 Q1026 NOSIG
  • 191755Z AUTO 08008KT 9999 NCD 21/00 Q1026 NOSIG

TAF TAF EHBK
Valido dal 19 a 18 ore il 21 a 00 ore UTC


191651Z 1918/2024 07008KT CAVOK
Nessun NOTAM noto per questo aeroporto.



MetMap, La meteo Aeronautica in un colpo d'occhio ! - Copyright ORBIFLY Dicembre 2007 - Disclaimer

ORBIFLY MET'MAP TEAM :

Programmazione e sviluppo : Alexandra Zaïnal
Concezione e sviluppo : Baudouin d'Aumeries
Co-Programmazione e sviluppo : Marc-Olivier Méhu
Supporto tecnico e logistico : Manuel Goepfert
Aiuto per la traduzione : Arnaldo La Scala

Contatto : metmap@orbifly.com




FONTI E CREDITI :

   NOAA